sensor_id;sensor_type;location;lat;lon;timestamp;P1;durP1;ratioP1;P2;durP2;ratioP2
27979;SDS011;15315;50.836;4.430;2024-02-16T00:01:28;7.35;;;2.40;;
27979;SDS011;15315;50.836;4.430;2024-02-16T00:11:28;6.65;;;2.45;;
27979;SDS011;15315;50.836;4.430;2024-02-16T00:21:28;7.85;;;2.25;;
27979;SDS011;15315;50.836;4.430;2024-02-16T00:31:29;3.90;;;2.30;;
27979;SDS011;15315;50.836;4.430;2024-02-16T00:41:30;4.32;;;2.47;;
27979;SDS011;15315;50.836;4.430;2024-02-16T00:51:30;5.57;;;2.60;;
27979;SDS011;15315;50.836;4.430;2024-02-16T01:01:31;5.80;;;2.10;;
27979;SDS011;15315;50.836;4.430;2024-02-16T01:11:31;3.65;;;2.15;;
27979;SDS011;15315;50.836;4.430;2024-02-16T01:21:31;6.18;;;2.42;;
27979;SDS011;15315;50.836;4.430;2024-02-16T01:31:32;8.50;;;2.63;;
27979;SDS011;15315;50.836;4.430;2024-02-16T01:41:33;6.00;;;2.38;;
27979;SDS011;15315;50.836;4.430;2024-02-16T01:51:34;6.30;;;2.90;;
27979;SDS011;15315;50.836;4.430;2024-02-16T02:01:35;4.82;;;2.28;;
27979;SDS011;15315;50.836;4.430;2024-02-16T02:11:36;6.43;;;2.85;;
27979;SDS011;15315;50.836;4.430;2024-02-16T02:21:37;3.72;;;2.55;;
27979;SDS011;15315;50.836;4.430;2024-02-16T02:31:38;6.03;;;3.03;;
27979;SDS011;15315;50.836;4.430;2024-02-16T02:41:38;4.20;;;2.30;;
27979;SDS011;15315;50.836;4.430;2024-02-16T02:51:39;5.70;;;2.47;;
27979;SDS011;15315;50.836;4.430;2024-02-16T03:01:39;4.28;;;2.40;;
27979;SDS011;15315;50.836;4.430;2024-02-16T03:11:40;6.57;;;2.63;;
27979;SDS011;15315;50.836;4.430;2024-02-16T03:21:40;9.68;;;2.42;;
27979;SDS011;15315;50.836;4.430;2024-02-16T03:31:41;7.75;;;2.65;;
27979;SDS011;15315;50.836;4.430;2024-02-16T03:41:41;9.15;;;3.00;;
27979;SDS011;15315;50.836;4.430;2024-02-16T03:51:41;5.93;;;2.67;;
27979;SDS011;15315;50.836;4.430;2024-02-16T04:01:42;8.70;;;2.38;;
27979;SDS011;15315;50.836;4.430;2024-02-16T04:11:42;7.03;;;2.75;;
27979;SDS011;15315;50.836;4.430;2024-02-16T04:21:43;8.43;;;3.00;;
27979;SDS011;15315;50.836;4.430;2024-02-16T04:31:43;7.88;;;2.55;;
27979;SDS011;15315;50.836;4.430;2024-02-16T04:41:45;5.80;;;2.78;;
27979;SDS011;15315;50.836;4.430;2024-02-16T04:51:46;9.52;;;3.00;;
27979;SDS011;15315;50.836;4.430;2024-02-16T05:01:47;7.70;;;2.85;;
27979;SDS011;15315;50.836;4.430;2024-02-16T05:11:47;12.98;;;3.00;;
27979;SDS011;15315;50.836;4.430;2024-02-16T05:21:48;9.60;;;2.80;;
27979;SDS011;15315;50.836;4.430;2024-02-16T05:31:50;6.65;;;2.55;;
27979;SDS011;15315;50.836;4.430;2024-02-16T05:41:52;9.93;;;2.67;;
27979;SDS011;15315;50.836;4.430;2024-02-16T05:51:53;6.80;;;2.95;;
27979;SDS011;15315;50.836;4.430;2024-02-16T06:02:12;9.68;;;2.90;;
27979;SDS011;15315;50.836;4.430;2024-02-16T06:12:12;16.33;;;3.42;;
27979;SDS011;15315;50.836;4.430;2024-02-16T06:22:13;11.60;;;3.33;;
27979;SDS011;15315;50.836;4.430;2024-02-16T06:32:15;16.67;;;3.90;;
27979;SDS011;15315;50.836;4.430;2024-02-16T06:42:17;9.75;;;3.95;;
27979;SDS011;15315;50.836;4.430;2024-02-16T06:52:17;11.98;;;3.65;;
27979;SDS011;15315;50.836;4.430;2024-02-16T07:02:17;15.13;;;4.30;;
27979;SDS011;15315;50.836;4.430;2024-02-16T07:12:18;14.93;;;3.95;;
27979;SDS011;15315;50.836;4.430;2024-02-16T07:22:19;16.13;;;4.17;;
27979;SDS011;15315;50.836;4.430;2024-02-16T07:32:19;11.32;;;4.20;;
27979;SDS011;15315;50.836;4.430;2024-02-16T07:42:19;15.63;;;4.63;;
27979;SDS011;15315;50.836;4.430;2024-02-16T07:52:20;10.57;;;4.30;;
27979;SDS011;15315;50.836;4.430;2024-02-16T08:02:21;11.65;;;4.20;;
27979;SDS011;15315;50.836;4.430;2024-02-16T08:12:21;18.58;;;4.47;;
27979;SDS011;15315;50.836;4.430;2024-02-16T08:22:22;16.17;;;4.50;;
27979;SDS011;15315;50.836;4.430;2024-02-16T08:32:23;14.93;;;4.88;;
27979;SDS011;15315;50.836;4.430;2024-02-16T08:42:24;20.90;;;5.78;;
27979;SDS011;15315;50.836;4.430;2024-02-16T08:52:24;11.88;;;4.45;;
27979;SDS011;15315;50.836;4.430;2024-02-16T09:02:24;16.90;;;6.53;;
27979;SDS011;15315;50.836;4.430;2024-02-16T09:12:25;11.57;;;5.18;;
27979;SDS011;15315;50.836;4.430;2024-02-16T09:22:25;14.27;;;5.82;;
27979;SDS011;15315;50.836;4.430;2024-02-16T09:32:26;21.92;;;6.85;;
27979;SDS011;15315;50.836;4.430;2024-02-16T09:42:26;17.95;;;6.93;;
27979;SDS011;15315;50.836;4.430;2024-02-16T09:52:27;17.50;;;6.47;;
27979;SDS011;15315;50.836;4.430;2024-02-16T10:02:27;20.48;;;6.55;;
27979;SDS011;15315;50.836;4.430;2024-02-16T10:12:27;19.77;;;7.40;;
27979;SDS011;15315;50.836;4.430;2024-02-16T10:22:28;21.02;;;7.10;;
27979;SDS011;15315;50.836;4.430;2024-02-16T10:32:29;20.35;;;6.90;;
27979;SDS011;15315;50.836;4.430;2024-02-16T10:42:29;22.50;;;6.53;;
27979;SDS011;15315;50.836;4.430;2024-02-16T11:02:55;22.15;;;7.07;;
27979;SDS011;15315;50.836;4.430;2024-02-16T11:13:03;22.50;;;7.45;;
27979;SDS011;15315;50.836;4.430;2024-02-16T11:23:08;26.05;;;8.52;;
27979;SDS011;15315;50.836;4.430;2024-02-16T11:33:10;19.05;;;8.70;;
27979;SDS011;15315;50.836;4.430;2024-02-16T11:43:11;25.10;;;10.57;;
27979;SDS011;15315;50.836;4.430;2024-02-16T11:53:20;39.03;;;11.50;;
27979;SDS011;15315;50.836;4.430;2024-02-16T12:03:21;26.50;;;12.70;;
27979;SDS011;15315;50.836;4.430;2024-02-16T12:13:23;17.20;;;8.35;;
27979;SDS011;15315;50.836;4.430;2024-02-16T12:23:23;16.67;;;7.30;;
27979;SDS011;15315;50.836;4.430;2024-02-16T12:33:24;13.60;;;6.18;;
27979;SDS011;15315;50.836;4.430;2024-02-16T12:43:25;9.45;;;5.60;;
27979;SDS011;15315;50.836;4.430;2024-02-16T12:53:25;7.28;;;6.07;;
27979;SDS011;15315;50.836;4.430;2024-02-16T13:03:28;9.55;;;6.97;;
27979;SDS011;15315;50.836;4.430;2024-02-16T13:13:28;14.43;;;8.52;;
27979;SDS011;15315;50.836;4.430;2024-02-16T13:23:29;10.15;;;8.00;;
27979;SDS011;15315;50.836;4.430;2024-02-16T13:33:31;10.93;;;7.32;;
27979;SDS011;15315;50.836;4.430;2024-02-16T13:43:31;10.63;;;5.78;;
27979;SDS011;15315;50.836;4.430;2024-02-16T13:53:31;9.27;;;7.10;;
27979;SDS011;15315;50.836;4.430;2024-02-16T14:03:32;9.45;;;6.78;;
27979;SDS011;15315;50.836;4.430;2024-02-16T14:13:33;5.32;;;4.15;;
27979;SDS011;15315;50.836;4.430;2024-02-16T14:23:33;5.13;;;3.78;;
27979;SDS011;15315;50.836;4.430;2024-02-16T14:33:34;5.28;;;3.28;;
27979;SDS011;15315;50.836;4.430;2024-02-16T14:43:35;4.95;;;3.47;;
27979;SDS011;15315;50.836;4.430;2024-02-16T14:53:37;4.13;;;2.90;;
27979;SDS011;15315;50.836;4.430;2024-02-16T15:03:37;7.50;;;3.33;;
27979;SDS011;15315;50.836;4.430;2024-02-16T15:13:37;5.00;;;3.28;;
27979;SDS011;15315;50.836;4.430;2024-02-16T15:23:38;5.25;;;3.28;;
27979;SDS011;15315;50.836;4.430;2024-02-16T15:33:38;7.38;;;3.17;;
27979;SDS011;15315;50.836;4.430;2024-02-16T15:43:39;8.27;;;3.72;;
27979;SDS011;15315;50.836;4.430;2024-02-16T15:53:39;6.20;;;3.38;;
27979;SDS011;15315;50.836;4.430;2024-02-16T16:03:40;7.40;;;4.00;;
27979;SDS011;15315;50.836;4.430;2024-02-16T16:13:41;8.35;;;4.20;;
27979;SDS011;15315;50.836;4.430;2024-02-16T16:23:41;6.20;;;4.95;;
27979;SDS011;15315;50.836;4.430;2024-02-16T16:33:42;7.93;;;4.47;;
27979;SDS011;15315;50.836;4.430;2024-02-16T16:43:43;8.68;;;4.70;;
27979;SDS011;15315;50.836;4.430;2024-02-16T16:53:43;8.15;;;4.57;;
27979;SDS011;15315;50.836;4.430;2024-02-16T17:03:44;9.75;;;5.20;;
27979;SDS011;15315;50.836;4.430;2024-02-16T17:13:44;11.32;;;5.57;;
27979;SDS011;15315;50.836;4.430;2024-02-16T17:23:45;10.32;;;5.63;;
27979;SDS011;15315;50.836;4.430;2024-02-16T17:33:46;9.68;;;5.57;;
27979;SDS011;15315;50.836;4.430;2024-02-16T17:43:46;7.90;;;6.25;;
27979;SDS011;15315;50.836;4.430;2024-02-16T17:53:47;9.20;;;7.10;;
27979;SDS011;15315;50.836;4.430;2024-02-16T18:03:48;8.70;;;6.88;;
27979;SDS011;15315;50.836;4.430;2024-02-16T18:13:48;11.27;;;7.70;;
27979;SDS011;15315;50.836;4.430;2024-02-16T18:23:49;14.02;;;8.77;;
27979;SDS011;15315;50.836;4.430;2024-02-16T18:33:49;14.65;;;9.38;;
27979;SDS011;15315;50.836;4.430;2024-02-16T18:43:50;17.97;;;9.43;;
27979;SDS011;15315;50.836;4.430;2024-02-16T18:53:50;20.05;;;11.07;;
27979;SDS011;15315;50.836;4.430;2024-02-16T19:03:52;19.90;;;11.13;;
27979;SDS011;15315;50.836;4.430;2024-02-16T19:13:52;13.32;;;6.15;;
27979;SDS011;15315;50.836;4.430;2024-02-16T19:23:53;12.40;;;6.60;;
27979;SDS011;15315;50.836;4.430;2024-02-16T19:33:53;14.60;;;8.32;;
27979;SDS011;15315;50.836;4.430;2024-02-16T19:43:54;17.52;;;8.27;;
27979;SDS011;15315;50.836;4.430;2024-02-16T19:53:54;17.08;;;8.40;;
27979;SDS011;15315;50.836;4.430;2024-02-16T20:03:55;16.70;;;9.13;;
27979;SDS011;15315;50.836;4.430;2024-02-16T20:13:55;17.98;;;6.47;;
27979;SDS011;15315;50.836;4.430;2024-02-16T20:23:56;19.73;;;5.47;;
27979;SDS011;15315;50.836;4.430;2024-02-16T20:33:59;26.48;;;6.00;;
27979;SDS011;15315;50.836;4.430;2024-02-16T20:44:00;18.95;;;5.95;;
27979;SDS011;15315;50.836;4.430;2024-02-16T20:54:00;21.33;;;5.68;;
27979;SDS011;15315;50.836;4.430;2024-02-16T21:04:01;24.23;;;6.25;;
27979;SDS011;15315;50.836;4.430;2024-02-16T21:14:01;18.27;;;5.07;;
27979;SDS011;15315;50.836;4.430;2024-02-16T21:24:02;16.17;;;5.28;;
27979;SDS011;15315;50.836;4.430;2024-02-16T21:34:02;21.38;;;4.63;;
27979;SDS011;15315;50.836;4.430;2024-02-16T21:44:03;14.95;;;4.63;;
27979;SDS011;15315;50.836;4.430;2024-02-16T21:54:04;18.58;;;5.45;;
27979;SDS011;15315;50.836;4.430;2024-02-16T22:04:05;19.95;;;5.00;;
27979;SDS011;15315;50.836;4.430;2024-02-16T22:14:06;20.92;;;4.85;;
27979;SDS011;15315;50.836;4.430;2024-02-16T22:24:07;14.05;;;4.00;;
27979;SDS011;15315;50.836;4.430;2024-02-16T22:34:09;14.25;;;4.30;;
27979;SDS011;15315;50.836;4.430;2024-02-16T22:44:10;22.23;;;5.13;;
27979;SDS011;15315;50.836;4.430;2024-02-16T22:54:10;19.77;;;5.03;;
27979;SDS011;15315;50.836;4.430;2024-02-16T23:04:10;19.25;;;4.57;;
27979;SDS011;15315;50.836;4.430;2024-02-16T23:14:11;20.65;;;5.40;;
27979;SDS011;15315;50.836;4.430;2024-02-16T23:24:11;14.77;;;4.60;;
27979;SDS011;15315;50.836;4.430;2024-02-16T23:34:12;19.75;;;4.60;;
27979;SDS011;15315;50.836;4.430;2024-02-16T23:44:12;17.48;;;4.75;;
27979;SDS011;15315;50.836;4.430;2024-02-16T23:54:12;20.83;;;4.20;;
